Time;durP1;ratioP1;P1;durP2;ratioP2;P2;SDS_P1;SDS_P2;PMS_P1;PMS_P2;Temp;Humidity;BMP_temperature;BMP_pressure;BME280_temperature;BME280_humidity;BME280_pressure;Samples;Min_cycle;Max_cycle;Signal;HPM_P1;HPM_P2
2023/05/03 00:02:11;;;;;;;;;;;15.30;65.00;;;;;;5001231;28;20036;-75
2023/05/03 00:04:40;;;;;;;;;;;15.20;65.10;;;;;;4998251;28;20001;-76
2023/05/03 00:07:07;;;;;;;;;;;15.20;65.20;;;;;;5000566;28;20063;-77
2023/05/03 00:09:34;;;;;;;;;;;15.10;65.30;;;;;;5000288;28;19929;-76
2023/05/03 00:12:01;;;;;;;;;;;15.10;65.20;;;;;;4998180;28;19926;-76
2023/05/03 00:14:28;;;;;;;;;;;15.10;65.40;;;;;;5000777;28;19932;-76
2023/05/03 00:16:54;;;;;;;;;;;15.00;65.40;;;;;;4991094;28;19933;-75
2023/05/03 00:19:21;;;;;;;;;;;15.00;65.50;;;;;;4991039;28;19930;-76
2023/05/03 00:21:49;;;;;;;;;;;15.00;65.70;;;;;;4989775;28;20003;-76
2023/05/03 00:24:15;;;;;;;;;;;14.90;65.80;;;;;;4992065;28;19952;-76
2023/05/03 00:26:42;;;;;;;;;;;14.90;65.70;;;;;;4990432;28;19933;-75
2023/05/03 00:29:08;;;;;;;;;;;14.90;65.90;;;;;;4991091;28;19941;-75
2023/05/03 00:31:35;;;;;;;;;;;14.80;65.90;;;;;;4990307;28;19936;-76
2023/05/03 00:34:02;;;;;;;;;;;14.80;66.00;;;;;;4993121;28;19992;-77
2023/05/03 00:36:29;;;;;;;;;;;14.80;66.10;;;;;;4994442;28;19936;-76
2023/05/03 00:38:57;;;;;;;;;;;14.70;65.90;;;;;;4999620;28;19937;-77
2023/05/03 00:41:24;;;;;;;;;;;14.70;66.00;;;;;;4997055;28;19934;-76
2023/05/03 00:43:51;;;;;;;;;;;14.60;66.10;;;;;;4996107;28;19929;-76
2023/05/03 00:46:17;;;;;;;;;;;14.60;66.30;;;;;;4993817;28;19937;-76
2023/05/03 00:48:44;;;;;;;;;;;14.60;66.50;;;;;;4995973;28;19936;-76
2023/05/03 00:51:13;;;;;;;;;;;14.60;66.60;;;;;;4994384;28;19960;-74
2023/05/03 00:53:41;;;;;;;;;;;14.50;66.60;;;;;;5004819;28;20190;-77
2023/05/03 00:56:10;;;;;;;;;;;14.50;66.60;;;;;;5002061;28;20394;-76
2023/05/03 00:58:38;;;;;;;;;;;14.50;66.70;;;;;;4992744;28;20026;-76
2023/05/03 01:01:05;;;;;;;;;;;14.40;66.60;;;;;;5000837;28;19934;-77
2023/05/03 01:03:31;;;;;;;;;;;14.40;66.70;;;;;;5001581;28;19975;-76
2023/05/03 01:06:03;;;;;;;;;;;14.30;66.60;;;;;;5002563;28;20300;-76
2023/05/03 01:08:32;;;;;;;;;;;14.30;66.70;;;;;;4999551;28;19934;-78
2023/05/03 01:11:02;;;;;;;;;;;14.20;66.70;;;;;;5003591;28;19929;-76
2023/05/03 01:13:35;;;;;;;;;;;14.30;66.90;;;;;;4998345;28;20008;-76
2023/05/03 01:16:06;;;;;;;;;;;14.20;67.00;;;;;;4998937;28;19929;-75
2023/05/03 01:18:37;;;;;;;;;;;14.20;67.20;;;;;;4996112;28;19934;-77
2023/05/03 01:21:04;;;;;;;;;;;14.20;67.20;;;;;;4999656;28;19941;-77
2023/05/03 01:23:33;;;;;;;;;;;14.10;67.20;;;;;;5002508;28;20029;-76
2023/05/03 01:26:13;;;;;;;;;;;14.10;67.30;;;;;;4998503;28;19933;-75
2023/05/03 01:28:40;;;;;;;;;;;14.10;67.50;;;;;;4998907;28;19930;-76
2023/05/03 01:31:07;;;;;;;;;;;14.00;67.50;;;;;;4997834;28;19929;-76
2023/05/03 01:33:36;;;;;;;;;;;14.00;67.60;;;;;;4995659;28;19934;-76
2023/05/03 01:36:08;;;;;;;;;;;13.90;67.60;;;;;;4998078;28;19934;-75
2023/05/03 01:38:36;;;;;;;;;;;13.90;67.70;;;;;;5002597;28;19934;-75
2023/05/03 01:41:06;;;;;;;;;;;13.90;67.70;;;;;;5001334;28;19937;-76
2023/05/03 01:43:34;;;;;;;;;;;13.80;67.80;;;;;;4999077;28;20202;-76
2023/05/03 01:46:00;;;;;;;;;;;13.80;67.90;;;;;;5000288;28;20694;-76
2023/05/03 01:48:27;;;;;;;;;;;13.80;68.00;;;;;;5002956;28;20430;-77
2023/05/03 01:50:53;;;;;;;;;;;13.70;68.00;;;;;;5000137;28;19940;-76
2023/05/03 01:53:20;;;;;;;;;;;13.70;68.10;;;;;;5005432;28;20558;-75
2023/05/03 01:55:46;;;;;;;;;;;13.70;68.20;;;;;;5006371;28;19992;-76
2023/05/03 01:58:14;;;;;;;;;;;13.60;68.20;;;;;;5003853;28;20065;-75
2023/05/03 02:00:41;;;;;;;;;;;13.60;68.30;;;;;;5000230;28;20459;-75
2023/05/03 02:03:08;;;;;;;;;;;13.60;68.30;;;;;;5002702;28;19936;-75
2023/05/03 02:05:35;;;;;;;;;;;13.60;68.40;;;;;;5000287;28;20056;-76
2023/05/03 02:08:01;;;;;;;;;;;13.60;68.50;;;;;;4993241;28;19940;-76
2023/05/03 02:10:28;;;;;;;;;;;13.50;68.50;;;;;;4994476;28;19933;-76
2023/05/03 02:12:54;;;;;;;;;;;13.50;68.60;;;;;;4993822;28;19937;-76
2023/05/03 02:15:22;;;;;;;;;;;13.50;68.70;;;;;;4993762;28;19930;-76
2023/05/03 02:17:49;;;;;;;;;;;13.40;68.70;;;;;;4994014;28;19933;-76
2023/05/03 02:20:16;;;;;;;;;;;13.40;68.80;;;;;;4992736;28;20411;-76
2023/05/03 02:22:42;;;;;;;;;;;13.40;68.90;;;;;;4994644;28;19937;-75
2023/05/03 02:25:09;;;;;;;;;;;13.30;68.90;;;;;;4991506;28;19930;-76
2023/05/03 02:27:36;;;;;;;;;;;13.30;69.00;;;;;;4992864;28;19937;-76
2023/05/03 02:30:02;;;;;;;;;;;13.30;69.00;;;;;;4993828;28;19936;-76
2023/05/03 02:32:30;;;;;;;;;;;13.20;69.00;;;;;;4995349;28;19937;-77
2023/05/03 02:34:57;;;;;;;;;;;13.20;69.10;;;;;;4992096;28;19936;-76
2023/05/03 02:37:23;;;;;;;;;;;13.20;69.20;;;;;;4991920;28;19940;-76
2023/05/03 02:39:50;;;;;;;;;;;13.20;69.30;;;;;;4991661;28;19937;-76
2023/05/03 02:42:17;;;;;;;;;;;13.10;69.30;;;;;;4995448;28;19929;-76
2023/05/03 02:44:45;;;;;;;;;;;13.10;69.40;;;;;;4994426;28;19937;-76
2023/05/03 02:47:11;;;;;;;;;;;13.10;69.40;;;;;;4999052;28;20027;-74
2023/05/03 02:49:39;;;;;;;;;;;13.10;69.50;;;;;;4991816;28;19933;-75
2023/05/03 02:52:06;;;;;;;;;;;13.00;69.60;;;;;;4996529;28;19937;-75
2023/05/03 02:54:32;;;;;;;;;;;13.00;69.60;;;;;;4999299;28;19929;-76
2023/05/03 02:57:00;;;;;;;;;;;13.00;69.70;;;;;;4997838;28;19972;-76
2023/05/03 02:59:27;;;;;;;;;;;12.90;69.70;;;;;;4994722;28;19980;-76
2023/05/03 03:01:53;;;;;;;;;;;12.90;69.80;;;;;;4995849;28;20812;-76
2023/05/03 03:04:20;;;;;;;;;;;12.90;69.90;;;;;;4995995;28;19936;-76
2023/05/03 03:06:48;;;;;;;;;;;12.90;69.90;;;;;;4993989;28;19933;-76
2023/05/03 03:09:14;;;;;;;;;;;12.80;70.00;;;;;;4998901;28;19941;-77
2023/05/03 03:11:41;;;;;;;;;;;12.80;70.00;;;;;;4995566;28;19932;-76
2023/05/03 03:14:07;;;;;;;;;;;12.80;70.10;;;;;;4994061;28;19925;-76
2023/05/03 03:16:34;;;;;;;;;;;12.70;70.10;;;;;;4994899;28;19934;-76
2023/05/03 03:19:01;;;;;;;;;;;12.70;70.20;;;;;;4996724;28;20007;-76
2023/05/03 03:21:28;;;;;;;;;;;12.70;70.30;;;;;;4998278;28;19952;-76
2023/05/03 03:23:56;;;;;;;;;;;12.60;70.30;;;;;;5000280;28;20026;-76
2023/05/03 03:26:23;;;;;;;;;;;12.60;70.30;;;;;;4999668;28;19937;-76
2023/05/03 03:28:50;;;;;;;;;;;12.60;70.40;;;;;;4996889;28;19929;-76
2023/05/03 03:31:17;;;;;;;;;;;12.60;70.50;;;;;;4998543;28;20315;-76
2023/05/03 03:33:43;;;;;;;;;;;12.60;70.50;;;;;;5001833;28;20004;-76
2023/05/03 03:36:10;;;;;;;;;;;12.50;70.60;;;;;;4996892;28;19936;-76
2023/05/03 03:38:36;;;;;;;;;;;12.50;70.60;;;;;;5004382;28;20802;-76
2023/05/03 03:41:04;;;;;;;;;;;12.50;70.60;;;;;;4999975;28;19929;-76
2023/05/03 03:43:31;;;;;;;;;;;12.50;70.70;;;;;;4998044;28;20451;-77
2023/05/03 03:45:57;;;;;;;;;;;12.40;70.70;;;;;;5001422;28;19924;-75
2023/05/03 03:48:24;;;;;;;;;;;12.40;70.80;;;;;;5002725;28;19936;-76
2023/05/03 03:50:50;;;;;;;;;;;12.40;70.90;;;;;;4995404;28;19932;-76
2023/05/03 03:53:17;;;;;;;;;;;12.40;70.90;;;;;;4999300;28;19933;-77
2023/05/03 03:55:43;;;;;;;;;;;12.30;71.00;;;;;;5001204;28;19925;-76
2023/05/03 03:58:11;;;;;;;;;;;12.30;71.10;;;;;;4997792;28;19926;-76
2023/05/03 04:00:38;;;;;;;;;;;12.30;71.20;;;;;;4993537;28;19937;-74
2023/05/03 04:03:06;;;;;;;;;;;12.20;71.20;;;;;;5000032;28;19925;-76
2023/05/03 04:05:32;;;;;;;;;;;12.20;71.30;;;;;;4997655;28;19933;-73
2023/05/03 04:07:59;;;;;;;;;;;12.20;71.40;;;;;;5000569;28;19937;-77
2023/05/03 04:10:25;;;;;;;;;;;12.20;71.40;;;;;;4997799;28;20784;-77
2023/05/03 04:12:52;;;;;;;;;;;12.10;71.30;;;;;;4995094;28;21170;-76
2023/05/03 04:15:20;;;;;;;;;;;12.10;71.40;;;;;;4993837;28;20018;-76
2023/05/03 04:17:48;;;;;;;;;;;12.10;71.40;;;;;;4997395;28;19936;-78
2023/05/03 04:20:16;;;;;;;;;;;12.10;71.50;;;;;;4992875;28;19933;-75
2023/05/03 04:22:43;;;;;;;;;;;12.00;71.60;;;;;;4997304;28;19940;-76
2023/05/03 04:25:12;;;;;;;;;;;12.00;71.70;;;;;;4995744;28;19986;-74
2023/05/03 04:27:39;;;;;;;;;;;12.00;71.70;;;;;;4991614;28;19936;-76
2023/05/03 04:30:07;;;;;;;;;;;11.90;71.70;;;;;;4988305;28;20443;-75
2023/05/03 04:32:36;;;;;;;;;;;11.90;71.80;;;;;;4993011;28;20071;-76
2023/05/03 04:35:03;;;;;;;;;;;11.90;71.90;;;;;;4994399;28;19964;-75
2023/05/03 04:37:29;;;;;;;;;;;11.90;71.90;;;;;;4990334;28;19929;-75
2023/05/03 04:39:56;;;;;;;;;;;11.90;72.00;;;;;;4989912;28;19933;-76
2023/05/03 04:42:22;;;;;;;;;;;11.90;72.00;;;;;;4992568;28;19929;-76
2023/05/03 04:44:49;;;;;;;;;;;11.80;72.10;;;;;;4990159;28;20295;-76
2023/05/03 04:47:16;;;;;;;;;;;11.80;72.10;;;;;;4994882;28;21268;-75
2023/05/03 04:49:45;;;;;;;;;;;11.80;72.20;;;;;;4990198;28;21874;-76
2023/05/03 04:52:13;;;;;;;;;;;11.70;72.20;;;;;;4989902;28;19983;-74
2023/05/03 04:54:40;;;;;;;;;;;11.60;71.20;;;;;;4991922;28;19968;-76
2023/05/03 04:57:06;;;;;;;;;;;11.00;75.50;;;;;;4991905;28;19934;-74
2023/05/03 04:59:33;;;;;;;;;;;10.90;75.50;;;;;;4990899;28;19930;-77
2023/05/03 05:01:59;;;;;;;;;;;10.80;75.50;;;;;;4990073;28;19937;-77
2023/05/03 05:04:26;;;;;;;;;;;10.90;75.60;;;;;;4994022;28;19929;-78
2023/05/03 05:06:54;;;;;;;;;;;10.90;75.50;;;;;;4994127;28;19937;-77
2023/05/03 05:09:21;;;;;;;;;;;10.90;75.40;;;;;;4988643;28;19926;-76
2023/05/03 05:11:47;;;;;;;;;;;11.00;75.30;;;;;;4993502;28;19933;-76
2023/05/03 05:14:14;;;;;;;;;;;11.00;75.20;;;;;;4990858;28;19929;-76
2023/05/03 05:16:40;;;;;;;;;;;11.00;75.20;;;;;;4991351;28;19964;-77
2023/05/03 05:19:07;;;;;;;;;;;11.10;75.20;;;;;;4989696;28;19925;-76
2023/05/03 05:21:34;;;;;;;;;;;11.10;75.60;;;;;;4991163;28;19933;-77
2023/05/03 05:24:02;;;;;;;;;;;11.10;75.20;;;;;;4993914;28;19936;-77
2023/05/03 05:26:29;;;;;;;;;;;11.10;75.20;;;;;;4995034;28;20287;-77
2023/05/03 05:28:55;;;;;;;;;;;11.10;75.10;;;;;;4995467;28;19936;-76
2023/05/03 05:31:23;;;;;;;;;;;11.10;75.10;;;;;;4996393;28;19934;-76
2023/05/03 05:33:49;;;;;;;;;;;11.10;75.20;;;;;;5000866;28;20578;-77
2023/05/03 05:36:16;;;;;;;;;;;11.10;76.00;;;;;;5000498;28;20358;-77
2023/05/03 05:38:43;;;;;;;;;;;11.10;75.30;;;;;;5003808;28;19929;-76
2023/05/03 05:41:11;;;;;;;;;;;11.10;75.30;;;;;;5005205;28;20395;-76
2023/05/03 05:43:37;;;;;;;;;;;11.10;75.30;;;;;;4999207;28;19936;-76
2023/05/03 05:46:04;;;;;;;;;;;11.10;75.30;;;;;;5007116;28;19940;-75
2023/05/03 05:48:30;;;;;;;;;;;11.10;75.40;;;;;;5003232;28;20374;-77
2023/05/03 05:50:57;;;;;;;;;;;11.10;75.40;;;;;;4998361;28;20415;-76
2023/05/03 05:53:24;;;;;;;;;;;11.10;75.40;;;;;;5002968;28;19933;-76
2023/05/03 05:55:50;;;;;;;;;;;11.10;75.40;;;;;;5003267;28;19933;-77
2023/05/03 05:58:18;;;;;;;;;;;11.10;75.50;;;;;;4999714;28;19936;-76
2023/05/03 06:00:47;;;;;;;;;;;11.10;75.50;;;;;;5003147;28;19933;-76
2023/05/03 06:03:14;;;;;;;;;;;11.10;75.50;;;;;;5001953;28;19929;-76
2023/05/03 06:05:41;;;;;;;;;;;11.10;75.60;;;;;;4995526;28;20483;-78
2023/05/03 06:08:07;;;;;;;;;;;11.10;75.60;;;;;;4998927;28;20536;-76
2023/05/03 06:10:34;;;;;;;;;;;11.10;75.70;;;;;;4999903;28;19933;-76
2023/05/03 06:13:01;;;;;;;;;;;11.10;75.80;;;;;;5004350;28;19935;-78
2023/05/03 06:15:29;;;;;;;;;;;11.10;76.60;;;;;;4996975;28;19980;-77
2023/05/03 06:17:55;;;;;;;;;;;11.00;75.80;;;;;;4994607;28;19937;-76
2023/05/03 06:20:23;;;;;;;;;;;11.10;75.90;;;;;;4992755;28;19936;-75
2023/05/03 06:22:49;;;;;;;;;;;11.00;75.90;;;;;;4996238;28;20565;-76
2023/05/03 06:25:16;;;;;;;;;;;11.00;76.50;;;;;;4990906;28;20378;-76
2023/05/03 06:27:42;;;;;;;;;;;11.00;76.10;;;;;;4993225;28;19929;-76
2023/05/03 06:30:10;;;;;;;;;;;11.00;76.10;;;;;;4995932;28;19934;-75
2023/05/03 06:32:40;;;;;;;;;;;11.10;76.40;;;;;;4992341;28;20233;-75
2023/05/03 06:35:08;;;;;;;;;;;11.00;76.30;;;;;;4990712;28;19933;-76
2023/05/03 06:37:34;;;;;;;;;;;11.10;76.50;;;;;;4992499;28;19940;-76
2023/05/03 06:40:01;;;;;;;;;;;11.00;76.50;;;;;;4993335;28;19940;-75
2023/05/03 06:42:27;;;;;;;;;;;11.00;76.50;;;;;;4991551;28;19936;-76
2023/05/03 06:44:54;;;;;;;;;;;11.00;76.60;;;;;;5003270;28;19925;-76
2023/05/03 06:47:21;;;;;;;;;;;11.10;76.70;;;;;;4999624;28;19926;-76
2023/05/03 06:49:49;;;;;;;;;;;11.10;76.70;;;;;;4996071;28;19964;-77
2023/05/03 06:52:15;;;;;;;;;;;11.10;76.80;;;;;;4997701;28;19996;-77
2023/05/03 06:54:42;;;;;;;;;;;11.00;76.70;;;;;;4990465;28;19940;-75
2023/05/03 06:57:09;;;;;;;;;;;11.10;77.00;;;;;;4994799;28;19929;-76
2023/05/03 06:59:36;;;;;;;;;;;11.10;77.10;;;;;;4997020;28;19929;-75
2023/05/03 07:02:02;;;;;;;;;;;11.10;77.20;;;;;;4994803;28;20407;-77
2023/05/03 07:04:29;;;;;;;;;;;11.10;77.40;;;;;;4996023;28;19936;-77
2023/05/03 07:06:57;;;;;;;;;;;11.10;77.50;;;;;;4994639;28;19930;-77
2023/05/03 07:09:23;;;;;;;;;;;11.10;77.50;;;;;;4993540;28;20025;-76
2023/05/03 07:11:50;;;;;;;;;;;11.10;77.50;;;;;;4995493;28;19929;-75
2023/05/03 07:14:17;;;;;;;;;;;11.10;77.70;;;;;;4990806;28;20188;-78
2023/05/03 07:16:43;;;;;;;;;;;11.10;77.90;;;;;;4991142;28;19957;-76
2023/05/03 07:19:10;;;;;;;;;;;11.10;78.10;;;;;;4993799;28;20827;-78
2023/05/03 07:21:37;;;;;;;;;;;11.10;78.10;;;;;;4981400;28;20791;-77
2023/05/03 07:24:06;;;;;;;;;;;11.10;78.20;;;;;;4988143;28;20423;-76
2023/05/03 07:26:33;;;;;;;;;;;11.20;78.40;;;;;;5002098;28;20240;-76
2023/05/03 07:29:00;;;;;;;;;;;11.20;78.40;;;;;;5001420;28;20678;-76
2023/05/03 07:31:26;;;;;;;;;;;11.20;78.40;;;;;;5000300;28;19936;-76
2023/05/03 07:33:53;;;;;;;;;;;11.20;78.60;;;;;;5003237;28;19936;-76
2023/05/03 07:36:19;;;;;;;;;;;11.20;78.70;;;;;;5000229;28;19936;-76
2023/05/03 07:38:46;;;;;;;;;;;11.20;78.60;;;;;;5001900;28;19937;-76
2023/05/03 07:41:14;;;;;;;;;;;11.20;78.70;;;;;;5005549;28;20031;-76
2023/05/03 07:43:40;;;;;;;;;;;11.30;78.90;;;;;;5007661;28;19936;-75
2023/05/03 07:46:07;;;;;;;;;;;11.30;78.80;;;;;;5006683;28;19929;-76
2023/05/03 07:48:33;;;;;;;;;;;11.30;79.00;;;;;;5005163;28;20388;-77
2023/05/03 07:51:00;;;;;;;;;;;11.30;79.10;;;;;;5004531;28;19933;-76
2023/05/03 07:53:26;;;;;;;;;;;11.30;79.30;;;;;;4999853;28;19930;-76
2023/05/03 07:55:53;;;;;;;;;;;11.40;79.40;;;;;;5000678;28;19955;-77
2023/05/03 07:58:21;;;;;;;;;;;11.40;79.50;;;;;;4993196;28;19930;-76
2023/05/03 08:00:48;;;;;;;;;;;11.40;79.40;;;;;;5002945;28;20829;-77
2023/05/03 08:03:14;;;;;;;;;;;11.40;79.60;;;;;;5000726;28;19933;-76
2023/05/03 08:05:41;;;;;;;;;;;11.50;79.70;;;;;;5000255;28;19941;-76
2023/05/03 08:08:08;;;;;;;;;;;11.50;79.70;;;;;;5001789;28;20025;-77
2023/05/03 08:10:36;;;;;;;;;;;11.50;79.70;;;;;;4993351;28;19934;-77
2023/05/03 08:13:04;;;;;;;;;;;11.50;79.80;;;;;;5007563;28;20319;-77
2023/05/03 08:15:32;;;;;;;;;;;11.60;80.00;;;;;;5005568;28;20669;-76
2023/05/03 08:17:59;;;;;;;;;;;11.60;80.00;;;;;;5003327;28;20008;-77
2023/05/03 08:20:27;;;;;;;;;;;11.60;80.00;;;;;;4999996;28;19952;-76
2023/05/03 08:22:55;;;;;;;;;;;11.60;80.00;;;;;;5010020;28;19972;-76
2023/05/03 08:25:22;;;;;;;;;;;11.60;80.00;;;;;;4998981;28;20409;-77
2023/05/03 08:27:49;;;;;;;;;;;11.70;80.10;;;;;;4997933;28;19937;-76
2023/05/03 08:30:16;;;;;;;;;;;11.70;80.10;;;;;;5007189;28;20254;-77
2023/05/03 08:32:44;;;;;;;;;;;11.80;80.30;;;;;;5006036;28;19968;-78
2023/05/03 08:35:12;;;;;;;;;;;11.70;80.10;;;;;;5002771;28;19932;-75
2023/05/03 08:37:39;;;;;;;;;;;11.80;80.10;;;;;;5001489;28;20729;-75
2023/05/03 08:40:07;;;;;;;;;;;11.80;80.10;;;;;;5004434;28;19929;-76
2023/05/03 08:42:38;;;;;;;;;;;11.90;80.20;;;;;;4999523;28;19939;-78
2023/05/03 08:45:05;;;;;;;;;;;11.90;80.30;;;;;;4993357;28;19929;-77
2023/05/03 08:47:36;;;;;;;;;;;11.90;80.20;;;;;;4999407;28;19929;-77
2023/05/03 08:50:05;;;;;;;;;;;11.90;80.20;;;;;;4994490;28;20491;-76
2023/05/03 08:52:33;;;;;;;;;;;11.90;80.40;;;;;;5004142;28;19932;-77
2023/05/03 08:55:00;;;;;;;;;;;12.00;80.50;;;;;;5000464;28;19930;-79
2023/05/03 08:57:27;;;;;;;;;;;12.00;80.60;;;;;;5002879;28;19929;-77
2023/05/03 08:59:57;;;;;;;;;;;12.10;80.60;;;;;;5005586;28;19937;-78
2023/05/03 09:02:24;;;;;;;;;;;12.10;80.60;;;;;;5001866;28;19934;-77
2023/05/03 09:04:50;;;;;;;;;;;12.20;80.60;;;;;;5006669;28;19941;-78
2023/05/03 09:07:19;;;;;;;;;;;12.20;80.50;;;;;;5002113;28;19933;-77
2023/05/03 09:09:45;;;;;;;;;;;12.30;80.40;;;;;;5005755;28;19940;-76
2023/05/03 09:12:12;;;;;;;;;;;12.30;80.10;;;;;;5005268;28;19936;-77
2023/05/03 09:14:42;;;;;;;;;;;12.30;80.00;;;;;;5003274;28;20670;-77
2023/05/03 09:17:13;;;;;;;;;;;12.40;80.00;;;;;;5005738;28;20629;-76
2023/05/03 09:19:49;;;;;;;;;;;12.40;80.00;;;;;;5003546;28;19933;-78
2023/05/03 09:22:15;;;;;;;;;;;12.50;80.00;;;;;;4999489;28;19929;-75
2023/05/03 09:24:50;;;;;;;;;;;12.50;79.80;;;;;;5001557;28;19929;-76
2023/05/03 09:27:18;;;;;;;;;;;12.50;79.50;;;;;;5001449;28;19933;-78
2023/05/03 09:29:44;;;;;;;;;;;12.60;79.40;;;;;;5003390;28;20245;-77
2023/05/03 09:32:11;;;;;;;;;;;12.70;79.20;;;;;;5002760;28;19930;-76
2023/05/03 09:34:38;;;;;;;;;;;12.70;79.20;;;;;;5002517;28;19965;-76
2023/05/03 09:37:05;;;;;;;;;;;12.80;78.90;;;;;;5001956;28;20407;-76
2023/05/03 09:39:32;;;;;;;;;;;12.90;78.80;;;;;;5007854;28;19968;-77
2023/05/03 09:42:09;;;;;;;;;;;13.00;78.70;;;;;;5004260;28;19929;-77
2023/05/03 09:44:40;;;;;;;;;;;13.00;78.60;;;;;;5011177;28;19941;-77
2023/05/03 09:47:07;;;;;;;;;;;13.10;78.60;;;;;;5003114;28;19933;-78
2023/05/03 09:49:35;;;;;;;;;;;13.20;78.40;;;;;;5001164;28;19933;-79
2023/05/03 09:52:02;;;;;;;;;;;13.20;78.20;;;;;;5001507;28;20036;-77
2023/05/03 09:54:30;;;;;;;;;;;13.30;78.10;;;;;;5002950;28;19937;-77
2023/05/03 09:56:56;;;;;;;;;;;13.40;77.80;;;;;;5010996;28;19946;-77
2023/05/03 09:59:24;;;;;;;;;;;13.40;78.40;;;;;;5002454;28;21349;-77
2023/05/03 10:01:52;;;;;;;;;;;13.50;77.60;;;;;;5002676;28;19938;-77
2023/05/03 10:04:20;;;;;;;;;;;13.60;77.40;;;;;;5006336;28;19929;-77
2023/05/03 10:06:48;;;;;;;;;;;13.60;77.10;;;;;;5002733;28;19930;-79
2023/05/03 10:09:19;;;;;;;;;;;13.70;76.80;;;;;;4999338;28;19934;-77
2023/05/03 10:11:48;;;;;;;;;;;13.80;76.70;;;;;;5006995;28;20419;-77
2023/05/03 10:14:14;;;;;;;;;;;13.80;76.60;;;;;;5007053;28;20678;-77
2023/05/03 10:16:44;;;;;;;;;;;13.90;76.50;;;;;;5005441;28;19952;-77
2023/05/03 10:19:13;;;;;;;;;;;14.00;76.50;;;;;;5001622;28;19929;-74
2023/05/03 10:21:47;;;;;;;;;;;14.10;76.00;;;;;;5000301;28;19929;-77
2023/05/03 10:24:14;;;;;;;;;;;14.20;76.30;;;;;;4997714;28;19935;-77
2023/05/03 10:26:41;;;;;;;;;;;14.30;75.80;;;;;;5000138;28;20407;-77
2023/05/03 10:29:23;;;;;;;;;;;14.30;75.60;;;;;;5002630;28;19929;-76
2023/05/03 10:31:51;;;;;;;;;;;14.40;75.50;;;;;;5008909;28;19929;-76
2023/05/03 10:34:21;;;;;;;;;;;14.50;75.20;;;;;;4998291;28;19929;-76
2023/05/03 10:36:49;;;;;;;;;;;14.60;75.30;;;;;;4999686;28;19934;-74
2023/05/03 10:39:17;;;;;;;;;;;14.60;75.00;;;;;;5008995;28;19933;-76
2023/05/03 10:41:43;;;;;;;;;;;14.70;74.70;;;;;;5004027;28;20060;-79
2023/05/03 10:44:25;;;;;;;;;;;14.80;74.50;;;;;;5000130;28;20403;-78
2023/05/03 10:46:53;;;;;;;;;;;14.90;74.60;;;;;;5005879;28;19959;-77
2023/05/03 10:49:20;;;;;;;;;;;14.90;74.30;;;;;;5003558;28;19929;-77
2023/05/03 10:51:47;;;;;;;;;;;15.00;74.40;;;;;;5004556;28;19938;-78
2023/05/03 10:54:14;;;;;;;;;;;15.10;74.30;;;;;;5000790;28;19925;-77
2023/05/03 10:56:54;;;;;;;;;;;15.10;74.10;;;;;;5008334;28;19925;-78
2023/05/03 10:59:21;;;;;;;;;;;15.20;73.90;;;;;;4999977;28;19925;-78
2023/05/03 11:01:49;;;;;;;;;;;15.30;73.80;;;;;;5004689;28;19925;-77
2023/05/03 11:04:20;;;;;;;;;;;15.30;73.60;;;;;;5005282;28;19938;-77
2023/05/03 11:06:50;;;;;;;;;;;15.40;73.30;;;;;;4997681;28;19925;-77
2023/05/03 11:09:17;;;;;;;;;;;15.50;73.30;;;;;;4999936;28;19925;-78
2023/05/03 11:11:43;;;;;;;;;;;15.60;72.90;;;;;;5003204;28;20012;-78
2023/05/03 11:14:10;;;;;;;;;;;15.60;72.30;;;;;;5003927;28;19929;-78
2023/05/03 11:16:39;;;;;;;;;;;15.70;72.20;;;;;;5008394;28;20652;-78
2023/05/03 11:19:06;;;;;;;;;;;15.80;72.10;;;;;;5000735;28;19925;-77
2023/05/03 11:21:35;;;;;;;;;;;15.80;71.70;;;;;;4999540;28;21852;-77
2023/05/03 11:24:01;;;;;;;;;;;16.00;71.80;;;;;;4996276;28;19929;-78
2023/05/03 11:26:28;;;;;;;;;;;16.00;71.40;;;;;;5004682;28;19945;-78
2023/05/03 11:28:55;;;;;;;;;;;16.10;71.50;;;;;;5000153;28;19930;-77
2023/05/03 11:31:21;;;;;;;;;;;16.20;71.40;;;;;;4999099;28;19983;-77
2023/05/03 11:33:49;;;;;;;;;;;16.20;70.50;;;;;;5004879;28;20020;-77
2023/05/03 11:36:15;;;;;;;;;;;16.30;71.40;;;;;;5001289;28;20009;-77
2023/05/03 11:38:43;;;;;;;;;;;16.40;69.90;;;;;;5002728;28;19929;-77
2023/05/03 11:41:12;;;;;;;;;;;16.50;70.00;;;;;;5003245;28;20003;-78
2023/05/03 11:43:40;;;;;;;;;;;16.50;69.60;;;;;;5001131;28;20410;-78
2023/05/03 11:46:07;;;;;;;;;;;16.60;69.60;;;;;;5001815;28;19944;-77
2023/05/03 11:48:34;;;;;;;;;;;16.70;69.20;;;;;;5004688;28;19972;-78
2023/05/03 11:51:06;;;;;;;;;;;16.70;68.80;;;;;;4999485;28;19929;-78
2023/05/03 11:53:33;;;;;;;;;;;16.80;68.30;;;;;;5005811;28;19937;-76
2023/05/03 11:56:00;;;;;;;;;;;16.90;67.70;;;;;;5007733;28;19933;-77
2023/05/03 11:58:28;;;;;;;;;;;16.90;67.60;;;;;;4996974;28;19956;-77
2023/05/03 12:00:55;;;;;;;;;;;17.00;67.80;;;;;;4998200;28;19933;-77
2023/05/03 12:03:22;;;;;;;;;;;17.10;67.30;;;;;;4998273;28;20407;-77
2023/05/03 12:05:50;;;;;;;;;;;17.20;66.90;;;;;;4997918;28;20423;-76
2023/05/03 12:08:18;;;;;;;;;;;17.20;66.90;;;;;;5003768;28;19982;-77
2023/05/03 12:10:45;;;;;;;;;;;17.30;66.20;;;;;;4997994;28;19952;-76
2023/05/03 12:13:13;;;;;;;;;;;17.40;66.20;;;;;;5000512;28;19929;-77
2023/05/03 12:15:42;;;;;;;;;;;17.40;65.90;;;;;;4994383;28;19966;-76
2023/05/03 12:18:09;;;;;;;;;;;17.50;65.60;;;;;;4996180;28;19937;-76
2023/05/03 12:20:36;;;;;;;;;;;17.60;65.30;;;;;;4999149;28;19937;-77
2023/05/03 12:23:04;;;;;;;;;;;17.70;64.20;;;;;;5000205;28;19940;-76
2023/05/03 12:25:31;;;;;;;;;;;17.70;64.80;;;;;;4994087;28;20415;-77
2023/05/03 12:27:58;;;;;;;;;;;17.80;64.60;;;;;;4993067;28;20304;-78
2023/05/03 12:30:26;;;;;;;;;;;17.80;64.10;;;;;;4992267;28;19945;-78
2023/05/03 12:32:53;;;;;;;;;;;17.90;63.70;;;;;;4995759;28;20748;-77
2023/05/03 12:35:20;;;;;;;;;;;17.90;64.00;;;;;;4995709;28;19949;-76
2023/05/03 12:37:46;;;;;;;;;;;18.00;63.70;;;;;;5004078;28;20040;-78
2023/05/03 12:40:13;;;;;;;;;;;18.00;64.00;;;;;;5001298;28;19933;-77
2023/05/03 12:42:40;;;;;;;;;;;18.10;63.80;;;;;;4990679;28;20407;-75
2023/05/03 12:45:07;;;;;;;;;;;18.20;63.80;;;;;;4987689;28;19930;-76
2023/05/03 12:47:36;;;;;;;;;;;18.20;64.00;;;;;;4992055;28;19941;-77
2023/05/03 12:50:03;;;;;;;;;;;18.20;63.60;;;;;;4990663;28;19930;-76
2023/05/03 12:52:30;;;;;;;;;;;18.30;63.10;;;;;;4991089;28;19929;-77
2023/05/03 12:54:57;;;;;;;;;;;18.30;62.40;;;;;;4990515;28;19937;-75
2023/05/03 12:57:23;;;;;;;;;;;18.40;61.20;;;;;;4998038;28;20909;-75
2023/05/03 12:59:52;;;;;;;;;;;18.40;61.20;;;;;;4995418;28;19933;-77
2023/05/03 13:02:19;;;;;;;;;;;18.50;61.50;;;;;;4995514;28;19936;-77
2023/05/03 13:04:49;;;;;;;;;;;18.50;62.20;;;;;;4994766;28;19936;-76
2023/05/03 13:07:16;;;;;;;;;;;18.60;61.00;;;;;;4995254;28;20112;-75
2023/05/03 13:09:43;;;;;;;;;;;18.60;60.10;;;;;;4989304;28;19933;-74
2023/05/03 13:12:11;;;;;;;;;;;18.70;60.20;;;;;;4990768;28;19934;-76
2023/05/03 13:14:38;;;;;;;;;;;18.70;60.20;;;;;;4998861;28;20027;-77
2023/05/03 13:17:05;;;;;;;;;;;18.80;61.00;;;;;;4994691;28;20086;-77
2023/05/03 13:19:32;;;;;;;;;;;18.80;60.50;;;;;;4989453;28;20390;-76
2023/05/03 13:22:00;;;;;;;;;;;18.80;59.30;;;;;;4992607;28;19929;-76
2023/05/03 13:24:26;;;;;;;;;;;18.90;59.40;;;;;;4990987;28;19935;-76
2023/05/03 13:26:53;;;;;;;;;;;18.90;59.60;;;;;;4996335;28;19934;-75
2023/05/03 13:29:20;;;;;;;;;;;19.00;58.80;;;;;;4996811;28;19940;-74
2023/05/03 13:31:47;;;;;;;;;;;19.10;58.70;;;;;;4991408;28;20028;-75
2023/05/03 13:34:13;;;;;;;;;;;19.10;59.10;;;;;;4994456;28;19936;-79
2023/05/03 13:36:40;;;;;;;;;;;19.20;59.50;;;;;;4998122;28;19940;-77
2023/05/03 13:39:09;;;;;;;;;;;19.20;58.30;;;;;;4999557;28;19926;-76
2023/05/03 13:41:37;;;;;;;;;;;19.20;58.40;;;;;;4996515;28;20319;-74
2023/05/03 13:44:05;;;;;;;;;;;19.30;57.70;;;;;;4995385;28;20020;-73
2023/05/03 13:46:31;;;;;;;;;;;19.30;58.40;;;;;;5005745;28;19933;-72
2023/05/03 13:48:58;;;;;;;;;;;19.40;57.30;;;;;;5004650;28;20560;-73
2023/05/03 13:51:27;;;;;;;;;;;19.40;57.00;;;;;;5001829;28;19933;-72
2023/05/03 13:53:54;;;;;;;;;;;19.50;57.60;;;;;;5000971;28;19938;-74
2023/05/03 13:56:21;;;;;;;;;;;19.50;57.10;;;;;;5003211;28;20005;-72
2023/05/03 13:58:48;;;;;;;;;;;19.60;57.00;;;;;;5001643;28;19929;-73
2023/05/03 14:01:15;;;;;;;;;;;19.60;56.20;;;;;;5006938;28;19930;-72
2023/05/03 14:03:42;;;;;;;;;;;19.70;56.80;;;;;;4998745;28;19940;-73
2023/05/03 14:06:09;;;;;;;;;;;19.70;57.00;;;;;;4999612;28;19939;-73
2023/05/03 14:08:36;;;;;;;;;;;19.80;56.90;;;;;;5003380;28;19936;-73
2023/05/03 14:11:02;;;;;;;;;;;19.80;56.90;;;;;;5001004;28;19929;-73
2023/05/03 14:13:30;;;;;;;;;;;19.90;56.40;;;;;;4996609;28;20071;-73
2023/05/03 14:15:57;;;;;;;;;;;19.90;55.70;;;;;;5009134;28;19933;-73
2023/05/03 14:18:23;;;;;;;;;;;19.90;56.20;;;;;;4998816;28;20283;-73